Terminal Aerodrome Forecast
Issued by NWS

Home | Current Version | Previous Version | Text Only | Print | Product List | Glossary On
Versions: 1 2 3 4 5 6 7 8 9 10 11 12 13 14 15 16 17 18 19 20 21 22 23
680
FTUS43 KAPX 262005 AAA
TAFPLN
TAF AMD
KPLN 262005Z 2620/2718 22014G24KT 2SM -SHSN BKN022
     FM262100 22013G24KT P6SM BKN035
     FM270000 24012G23KT P6SM VCSH BKN035
     FM270300 27011KT P6SM VCSH BKN035
     FM270500 28009KT P6SM BKN100
     FM271300 VRB03KT P6SM SCT090
     FM271700 20004KT P6SM BKN090=

USA.gov is the U.S. government's official web portal to all federal, state and local government web resources and services.